sensor_id;sensor_type;location;lat;lon;timestamp;pressure;altitude;pressure_sealevel;temperature;humidity
23016;BME280;11674;52.428;13.584;2023-12-22T00:01:50;98250.91;;;3.95;85.97
23016;BME280;11674;52.428;13.584;2023-12-22T00:06:57;98274.16;;;3.86;85.91
23016;BME280;11674;52.428;13.584;2023-12-22T00:12:04;98277.94;;;3.73;85.72
23016;BME280;11674;52.428;13.584;2023-12-22T00:17:11;98286.91;;;3.61;85.77
23016;BME280;11674;52.428;13.584;2023-12-22T00:22:18;98274.28;;;3.52;85.79
23016;BME280;11674;52.428;13.584;2023-12-22T00:27:25;98301.22;;;3.46;86.05
23016;BME280;11674;52.428;13.584;2023-12-22T00:32:32;98283.41;;;3.44;86.18
23016;BME280;11674;52.428;13.584;2023-12-22T00:37:39;98311.13;;;3.47;86.32
23016;BME280;11674;52.428;13.584;2023-12-22T00:42:46;98329.25;;;3.48;86.29
23016;BME280;11674;52.428;13.584;2023-12-22T00:47:53;98329.56;;;3.55;86.30
23016;BME280;11674;52.428;13.584;2023-12-22T00:53:00;98334.56;;;3.62;86.42
23016;BME280;11674;52.428;13.584;2023-12-22T00:58:07;98330.50;;;3.68;86.28
23016;BME280;11674;52.428;13.584;2023-12-22T01:03:14;98325.63;;;3.65;86.00
23016;BME280;11674;52.428;13.584;2023-12-22T01:08:21;98351.75;;;3.59;85.73
23016;BME280;11674;52.428;13.584;2023-12-22T01:13:28;98365.09;;;3.48;85.82
23016;BME280;11674;52.428;13.584;2023-12-22T01:18:35;98373.53;;;3.43;85.82
23016;BME280;11674;52.428;13.584;2023-12-22T01:23:42;98368.81;;;3.35;85.84
23016;BME280;11674;52.428;13.584;2023-12-22T01:28:49;98376.13;;;3.31;85.98
23016;BME280;11674;52.428;13.584;2023-12-22T01:33:56;98386.34;;;3.31;86.13
23016;BME280;11674;52.428;13.584;2023-12-22T01:39:03;98389.91;;;3.31;86.04
23016;BME280;11674;52.428;13.584;2023-12-22T01:44:10;98398.19;;;3.31;86.05
23016;BME280;11674;52.428;13.584;2023-12-22T01:49:17;98403.84;;;3.35;85.98
23016;BME280;11674;52.428;13.584;2023-12-22T01:54:24;98428.13;;;3.33;85.97
23016;BME280;11674;52.428;13.584;2023-12-22T01:59:32;98428.50;;;3.31;86.08
23016;BME280;11674;52.428;13.584;2023-12-22T02:04:39;98435.47;;;3.29;85.86
23016;BME280;11674;52.428;13.584;2023-12-22T02:09:46;98429.78;;;3.25;86.04
23016;BME280;11674;52.428;13.584;2023-12-22T02:14:53;98428.97;;;3.25;86.01
23016;BME280;11674;52.428;13.584;2023-12-22T02:20:00;98437.72;;;3.27;86.07
23016;BME280;11674;52.428;13.584;2023-12-22T02:25:07;98383.75;;;3.26;86.03
23016;BME280;11674;52.428;13.584;2023-12-22T02:30:38;98420.06;;;3.28;86.21
23016;BME280;11674;52.428;13.584;2023-12-22T02:35:48;98419.72;;;3.29;86.00
23016;BME280;11674;52.428;13.584;2023-12-22T02:40:55;98438.22;;;3.29;86.03
23016;BME280;11674;52.428;13.584;2023-12-22T02:46:02;98466.72;;;3.24;86.02
23016;BME280;11674;52.428;13.584;2023-12-22T02:51:09;98429.28;;;3.23;86.14
23016;BME280;11674;52.428;13.584;2023-12-22T02:56:16;98437.88;;;3.22;85.93
23016;BME280;11674;52.428;13.584;2023-12-22T03:01:26;98440.97;;;3.20;85.79
23016;BME280;11674;52.428;13.584;2023-12-22T03:06:33;98424.75;;;3.10;85.84
23016;BME280;11674;52.428;13.584;2023-12-22T03:11:40;98426.22;;;3.08;86.09
23016;BME280;11674;52.428;13.584;2023-12-22T03:16:47;98427.81;;;3.09;86.05
23016;BME280;11674;52.428;13.584;2023-12-22T03:21:54;98440.78;;;3.08;85.94
23016;BME280;11674;52.428;13.584;2023-12-22T03:27:01;98457.13;;;3.05;85.90
23016;BME280;11674;52.428;13.584;2023-12-22T03:32:08;98446.13;;;3.05;86.03
23016;BME280;11674;52.428;13.584;2023-12-22T03:37:15;98440.28;;;2.98;85.72
23016;BME280;11674;52.428;13.584;2023-12-22T03:42:22;98430.56;;;2.92;85.83
23016;BME280;11674;52.428;13.584;2023-12-22T03:47:29;98414.19;;;2.87;85.93
23016;BME280;11674;52.428;13.584;2023-12-22T03:52:36;98408.84;;;2.82;85.98
23016;BME280;11674;52.428;13.584;2023-12-22T03:57:43;98427.28;;;2.81;86.11
23016;BME280;11674;52.428;13.584;2023-12-22T04:02:50;98435.72;;;2.85;86.09
23016;BME280;11674;52.428;13.584;2023-12-22T04:07:57;98421.47;;;2.91;86.12
23016;BME280;11674;52.428;13.584;2023-12-22T04:13:04;98448.38;;;2.94;86.16
23016;BME280;11674;52.428;13.584;2023-12-22T04:18:11;98439.81;;;2.96;86.03
23016;BME280;11674;52.428;13.584;2023-12-22T04:23:18;98451.94;;;2.95;85.78
23016;BME280;11674;52.428;13.584;2023-12-22T04:28:25;98447.53;;;2.85;85.10
23016;BME280;11674;52.428;13.584;2023-12-22T04:33:32;98448.97;;;2.66;84.39
23016;BME280;11674;52.428;13.584;2023-12-22T04:38:39;98441.25;;;2.37;83.36
23016;BME280;11674;52.428;13.584;2023-12-22T04:43:48;98435.97;;;2.19;83.93
23016;BME280;11674;52.428;13.584;2023-12-22T04:48:59;98426.41;;;2.16;84.81
23016;BME280;11674;52.428;13.584;2023-12-22T04:54:06;98431.97;;;2.25;85.54
23016;BME280;11674;52.428;13.584;2023-12-22T04:59:13;98436.06;;;2.36;86.08
23016;BME280;11674;52.428;13.584;2023-12-22T05:04:20;98441.22;;;2.29;84.86
23016;BME280;11674;52.428;13.584;2023-12-22T05:09:28;98463.47;;;2.19;84.82
23016;BME280;11674;52.428;13.584;2023-12-22T05:14:37;98453.91;;;1.86;83.82
23016;BME280;11674;52.428;13.584;2023-12-22T05:19:44;98463.38;;;1.49;83.85
23016;BME280;11674;52.428;13.584;2023-12-22T05:24:52;98439.72;;;1.26;84.22
23016;BME280;11674;52.428;13.584;2023-12-22T05:29:58;98429.94;;;1.12;84.58
23016;BME280;11674;52.428;13.584;2023-12-22T05:35:06;98442.63;;;1.08;85.05
23016;BME280;11674;52.428;13.584;2023-12-22T05:40:13;98439.09;;;1.07;84.95
23016;BME280;11674;52.428;13.584;2023-12-22T05:45:20;98454.63;;;1.12;85.35
23016;BME280;11674;52.428;13.584;2023-12-22T05:50:27;98454.81;;;1.15;85.46
23016;BME280;11674;52.428;13.584;2023-12-22T05:55:34;98425.63;;;1.19;85.37
23016;BME280;11674;52.428;13.584;2023-12-22T06:00:41;98442.28;;;1.23;85.33
23016;BME280;11674;52.428;13.584;2023-12-22T06:05:48;98432.63;;;1.25;85.14
23016;BME280;11674;52.428;13.584;2023-12-22T06:10:55;98439.63;;;1.31;85.11
23016;BME280;11674;52.428;13.584;2023-12-22T06:16:03;98458.28;;;1.43;85.23
23016;BME280;11674;52.428;13.584;2023-12-22T06:21:10;98458.84;;;1.53;85.12
23016;BME280;11674;52.428;13.584;2023-12-22T06:26:17;98468.59;;;1.59;84.76
23016;BME280;11674;52.428;13.584;2023-12-22T06:31:24;98445.81;;;1.59;84.44
23016;BME280;11674;52.428;13.584;2023-12-22T06:36:32;98447.25;;;1.56;84.43
23016;BME280;11674;52.428;13.584;2023-12-22T06:41:39;98455.50;;;1.56;84.38
23016;BME280;11674;52.428;13.584;2023-12-22T06:46:46;98467.66;;;1.64;84.59
23016;BME280;11674;52.428;13.584;2023-12-22T06:51:53;98488.56;;;1.73;84.46
23016;BME280;11674;52.428;13.584;2023-12-22T06:57:00;98475.25;;;1.45;83.09
23016;BME280;11674;52.428;13.584;2023-12-22T07:02:07;98486.88;;;1.20;83.74
23016;BME280;11674;52.428;13.584;2023-12-22T07:07:14;98478.13;;;1.04;84.27
23016;BME280;11674;52.428;13.584;2023-12-22T07:12:21;98489.41;;;1.03;84.78
23016;BME280;11674;52.428;13.584;2023-12-22T07:17:28;98500.09;;;1.04;84.93
23016;BME280;11674;52.428;13.584;2023-12-22T07:22:35;98549.09;;;1.11;84.98
23016;BME280;11674;52.428;13.584;2023-12-22T07:27:42;98582.84;;;1.11;85.04
23016;BME280;11674;52.428;13.584;2023-12-22T07:32:49;98548.06;;;1.07;84.75
23016;BME280;11674;52.428;13.584;2023-12-22T07:37:56;98553.97;;;1.00;84.96
23016;BME280;11674;52.428;13.584;2023-12-22T07:43:03;98542.09;;;1.05;85.11
23016;BME280;11674;52.428;13.584;2023-12-22T07:48:17;98540.84;;;1.24;85.74
23016;BME280;11674;52.428;13.584;2023-12-22T07:53:24;98537.75;;;1.39;85.55
23016;BME280;11674;52.428;13.584;2023-12-22T07:58:31;98534.16;;;1.52;85.27
23016;BME280;11674;52.428;13.584;2023-12-22T08:03:38;98529.44;;;1.66;85.00
23016;BME280;11674;52.428;13.584;2023-12-22T08:08:45;98523.69;;;1.76;84.56
23016;BME280;11674;52.428;13.584;2023-12-22T08:13:52;98532.78;;;1.85;84.41
23016;BME280;11674;52.428;13.584;2023-12-22T08:18:59;98554.16;;;1.88;84.23
23016;BME280;11674;52.428;13.584;2023-12-22T08:24:06;98549.97;;;1.91;83.92
23016;BME280;11674;52.428;13.584;2023-12-22T08:29:14;98568.09;;;1.92;84.20
23016;BME280;11674;52.428;13.584;2023-12-22T08:34:20;98580.72;;;1.93;83.86
23016;BME280;11674;52.428;13.584;2023-12-22T08:39:27;98573.09;;;1.90;83.79
23016;BME280;11674;52.428;13.584;2023-12-22T08:44:34;98579.84;;;1.84;84.24
23016;BME280;11674;52.428;13.584;2023-12-22T08:49:41;98627.69;;;1.83;84.63
23016;BME280;11674;52.428;13.584;2023-12-22T08:54:48;98629.00;;;1.85;85.01
23016;BME280;11674;52.428;13.584;2023-12-22T08:59:56;98600.59;;;1.90;85.13
23016;BME280;11674;52.428;13.584;2023-12-22T09:05:02;98604.03;;;1.95;85.16
23016;BME280;11674;52.428;13.584;2023-12-22T09:10:09;98631.38;;;2.00;85.36
23016;BME280;11674;52.428;13.584;2023-12-22T09:15:19;98623.97;;;2.01;85.24
23016;BME280;11674;52.428;13.584;2023-12-22T09:20:25;98634.31;;;2.04;85.05
23016;BME280;11674;52.428;13.584;2023-12-22T09:25:32;98635.53;;;2.11;85.50
23016;BME280;11674;52.428;13.584;2023-12-22T09:30:39;98652.94;;;2.20;85.29
23016;BME280;11674;52.428;13.584;2023-12-22T09:35:46;98659.00;;;2.31;85.74
23016;BME280;11674;52.428;13.584;2023-12-22T09:40:54;98700.97;;;2.36;85.43
23016;BME280;11674;52.428;13.584;2023-12-22T09:46:01;98657.00;;;2.45;85.43
23016;BME280;11674;52.428;13.584;2023-12-22T09:51:10;98688.34;;;2.57;85.59
23016;BME280;11674;52.428;13.584;2023-12-22T09:56:19;98718.69;;;2.66;85.38
23016;BME280;11674;52.428;13.584;2023-12-22T10:01:27;98701.91;;;2.76;85.58
23016;BME280;11674;52.428;13.584;2023-12-22T10:06:34;98704.41;;;2.86;85.20
23016;BME280;11674;52.428;13.584;2023-12-22T10:11:43;98698.56;;;2.87;85.23
23016;BME280;11674;52.428;13.584;2023-12-22T10:16:54;98692.44;;;2.90;85.30
23016;BME280;11674;52.428;13.584;2023-12-22T10:22:03;98688.72;;;2.95;85.40
23016;BME280;11674;52.428;13.584;2023-12-22T10:27:11;98702.88;;;3.02;85.32
23016;BME280;11674;52.428;13.584;2023-12-22T10:32:17;98712.50;;;3.13;85.45
23016;BME280;11674;52.428;13.584;2023-12-22T10:37:24;98720.50;;;3.23;85.42
23016;BME280;11674;52.428;13.584;2023-12-22T10:42:32;98696.53;;;3.32;85.53
23016;BME280;11674;52.428;13.584;2023-12-22T10:47:42;98727.53;;;3.37;85.35
23016;BME280;11674;52.428;13.584;2023-12-22T10:52:58;98722.06;;;3.46;85.43
23016;BME280;11674;52.428;13.584;2023-12-22T10:58:06;98713.13;;;3.49;85.19
23016;BME280;11674;52.428;13.584;2023-12-22T11:03:17;98724.03;;;3.54;85.25
23016;BME280;11674;52.428;13.584;2023-12-22T11:08:26;98719.69;;;3.61;85.37
23016;BME280;11674;52.428;13.584;2023-12-22T11:13:35;98720.66;;;3.65;85.46
23016;BME280;11674;52.428;13.584;2023-12-22T11:18:46;98716.16;;;3.69;85.18
23016;BME280;11674;52.428;13.584;2023-12-22T11:23:55;98716.16;;;3.69;85.24
23016;BME280;11674;52.428;13.584;2023-12-22T11:29:02;98713.88;;;3.71;85.10
23016;BME280;11674;52.428;13.584;2023-12-22T11:34:14;98708.34;;;3.63;84.84
23016;BME280;11674;52.428;13.584;2023-12-22T11:39:24;98718.88;;;3.61;85.16
23016;BME280;11674;52.428;13.584;2023-12-22T11:44:34;98718.38;;;3.59;85.15
23016;BME280;11674;52.428;13.584;2023-12-22T11:49:41;98690.34;;;3.65;85.54
23016;BME280;11674;52.428;13.584;2023-12-22T12:00:05;98691.34;;;3.78;85.52
23016;BME280;11674;52.428;13.584;2023-12-22T12:05:17;98733.38;;;3.83;85.33
23016;BME280;11674;52.428;13.584;2023-12-22T12:15:41;98736.94;;;3.84;85.66
23016;BME280;11674;52.428;13.584;2023-12-22T12:20:50;98748.16;;;3.87;85.57
23016;BME280;11674;52.428;13.584;2023-12-22T12:26:07;98751.06;;;3.91;85.50
23016;BME280;11674;52.428;13.584;2023-12-22T12:31:38;98730.66;;;3.92;85.48
23016;BME280;11674;52.428;13.584;2023-12-22T12:36:45;98726.09;;;3.87;85.11
23016;BME280;11674;52.428;13.584;2023-12-22T12:41:53;98748.47;;;3.86;85.19
23016;BME280;11674;52.428;13.584;2023-12-22T12:47:14;98736.13;;;3.83;85.15
23016;BME280;11674;52.428;13.584;2023-12-22T12:52:21;98739.72;;;3.84;85.47
23016;BME280;11674;52.428;13.584;2023-12-22T12:57:28;98757.88;;;3.85;85.05
23016;BME280;11674;52.428;13.584;2023-12-22T13:02:36;98745.50;;;3.74;85.20
23016;BME280;11674;52.428;13.584;2023-12-22T13:07:47;98749.69;;;3.63;85.06
23016;BME280;11674;52.428;13.584;2023-12-22T13:12:54;98745.94;;;3.59;85.35
23016;BME280;11674;52.428;13.584;2023-12-22T13:18:00;98743.53;;;3.57;84.99
23016;BME280;11674;52.428;13.584;2023-12-22T13:23:07;98753.25;;;3.55;84.95
23016;BME280;11674;52.428;13.584;2023-12-22T13:28:27;98720.66;;;3.57;85.30
23016;BME280;11674;52.428;13.584;2023-12-22T13:33:34;98718.88;;;3.61;85.42
23016;BME280;11674;52.428;13.584;2023-12-22T13:38:48;98737.03;;;3.62;85.59
23016;BME280;11674;52.428;13.584;2023-12-22T13:43:55;98734.47;;;3.65;85.26
23016;BME280;11674;52.428;13.584;2023-12-22T13:49:04;98741.72;;;3.61;85.43
23016;BME280;11674;52.428;13.584;2023-12-22T13:54:14;98755.38;;;3.66;85.39
23016;BME280;11674;52.428;13.584;2023-12-22T13:59:33;98741.09;;;3.64;85.41
23016;BME280;11674;52.428;13.584;2023-12-22T14:04:42;98761.84;;;3.62;85.31
23016;BME280;11674;52.428;13.584;2023-12-22T14:09:48;98765.75;;;3.61;85.52
23016;BME280;11674;52.428;13.584;2023-12-22T14:14:55;98775.78;;;3.57;85.39
23016;BME280;11674;52.428;13.584;2023-12-22T14:20:05;98759.69;;;3.50;85.26
23016;BME280;11674;52.428;13.584;2023-12-22T14:25:14;98770.84;;;3.45;85.30
23016;BME280;11674;52.428;13.584;2023-12-22T14:30:21;98798.06;;;3.38;84.99
23016;BME280;11674;52.428;13.584;2023-12-22T14:35:28;98807.22;;;3.25;84.92
23016;BME280;11674;52.428;13.584;2023-12-22T14:40:38;98812.47;;;3.13;84.80
23016;BME280;11674;52.428;13.584;2023-12-22T14:45:45;98793.25;;;3.00;84.47
23016;BME280;11674;52.428;13.584;2023-12-22T14:50:52;98818.09;;;2.86;84.68
23016;BME280;11674;52.428;13.584;2023-12-22T14:56:01;98792.25;;;2.74;84.64
23016;BME280;11674;52.428;13.584;2023-12-22T15:01:12;98806.75;;;2.66;84.76
23016;BME280;11674;52.428;13.584;2023-12-22T15:06:19;98800.53;;;2.60;84.81
23016;BME280;11674;52.428;13.584;2023-12-22T15:11:27;98822.25;;;2.62;85.18
23016;BME280;11674;52.428;13.584;2023-12-22T15:16:38;98808.19;;;2.63;85.00
23016;BME280;11674;52.428;13.584;2023-12-22T15:21:45;98830.50;;;2.62;84.97
23016;BME280;11674;52.428;13.584;2023-12-22T15:26:55;98819.50;;;2.62;84.89
23016;BME280;11674;52.428;13.584;2023-12-22T15:32:01;98842.97;;;2.59;84.99
23016;BME280;11674;52.428;13.584;2023-12-22T15:37:09;98839.41;;;2.59;84.84
23016;BME280;11674;52.428;13.584;2023-12-22T15:42:15;98840.50;;;2.58;84.92
23016;BME280;11674;52.428;13.584;2023-12-22T15:47:22;98834.50;;;2.56;85.01
23016;BME280;11674;52.428;13.584;2023-12-22T15:52:29;98846.00;;;2.58;85.13
23016;BME280;11674;52.428;13.584;2023-12-22T15:57:39;98847.13;;;2.57;85.27
23016;BME280;11674;52.428;13.584;2023-12-22T16:02:45;98850.41;;;2.59;85.20
23016;BME280;11674;52.428;13.584;2023-12-22T16:07:58;98835.00;;;2.58;85.31
23016;BME280;11674;52.428;13.584;2023-12-22T16:13:10;98826.75;;;2.58;85.23
23016;BME280;11674;52.428;13.584;2023-12-22T16:18:17;98843.06;;;2.54;85.14
23016;BME280;11674;52.428;13.584;2023-12-22T16:23:24;98857.66;;;2.55;85.12
23016;BME280;11674;52.428;13.584;2023-12-22T16:28:34;98861.19;;;2.55;85.29
23016;BME280;11674;52.428;13.584;2023-12-22T16:33:40;98843.06;;;2.54;85.25
23016;BME280;11674;52.428;13.584;2023-12-22T16:38:50;98850.81;;;2.52;84.96
23016;BME280;11674;52.428;13.584;2023-12-22T16:43:56;98856.03;;;2.54;85.26
23016;BME280;11674;52.428;13.584;2023-12-22T16:49:03;98841.75;;;2.52;85.02
23016;BME280;11674;52.428;13.584;2023-12-22T16:54:13;98839.28;;;2.50;85.13
23016;BME280;11674;52.428;13.584;2023-12-22T16:59:19;98845.31;;;2.52;85.20
23016;BME280;11674;52.428;13.584;2023-12-22T17:04:26;98850.53;;;2.54;85.20
23016;BME280;11674;52.428;13.584;2023-12-22T17:09:33;98846.84;;;2.58;85.33
23016;BME280;11674;52.428;13.584;2023-12-22T17:14:40;98845.91;;;2.63;85.10
23016;BME280;11674;52.428;13.584;2023-12-22T17:19:47;98860.69;;;2.67;85.27
23016;BME280;11674;52.428;13.584;2023-12-22T17:24:54;98866.69;;;2.69;85.12
23016;BME280;11674;52.428;13.584;2023-12-22T17:30:02;98860.06;;;2.70;85.12
23016;BME280;11674;52.428;13.584;2023-12-22T17:35:08;98848.72;;;2.71;85.10
23016;BME280;11674;52.428;13.584;2023-12-22T17:40:18;98824.28;;;2.70;85.03
23016;BME280;11674;52.428;13.584;2023-12-22T17:45:27;98852.41;;;2.67;84.98
23016;BME280;11674;52.428;13.584;2023-12-22T17:50:33;98848.34;;;2.64;85.11
23016;BME280;11674;52.428;13.584;2023-12-22T17:55:48;98845.41;;;2.61;85.02
23016;BME280;11674;52.428;13.584;2023-12-22T18:00:54;98869.88;;;2.62;85.24
23016;BME280;11674;52.428;13.584;2023-12-22T18:06:04;98884.75;;;2.61;85.11
23016;BME280;11674;52.428;13.584;2023-12-22T18:11:10;98888.63;;;2.60;85.13
23016;BME280;11674;52.428;13.584;2023-12-22T18:16:18;98889.13;;;2.62;85.08
23016;BME280;11674;52.428;13.584;2023-12-22T18:21:25;98897.69;;;2.61;84.86
23016;BME280;11674;52.428;13.584;2023-12-22T18:26:32;98879.03;;;2.58;84.84
23016;BME280;11674;52.428;13.584;2023-12-22T18:31:39;98895.88;;;2.56;84.94
23016;BME280;11674;52.428;13.584;2023-12-22T18:36:46;98911.25;;;2.57;84.95
23016;BME280;11674;52.428;13.584;2023-12-22T18:41:53;98904.63;;;2.58;85.14
23016;BME280;11674;52.428;13.584;2023-12-22T18:47:00;98908.22;;;2.59;84.89
23016;BME280;11674;52.428;13.584;2023-12-22T18:52:07;98889.94;;;2.63;84.87
23016;BME280;11674;52.428;13.584;2023-12-22T18:57:14;98906.44;;;2.63;84.82
23016;BME280;11674;52.428;13.584;2023-12-22T19:02:22;98902.59;;;2.64;84.72
23016;BME280;11674;52.428;13.584;2023-12-22T19:07:28;98912.38;;;2.70;84.75
23016;BME280;11674;52.428;13.584;2023-12-22T19:12:35;98913.06;;;2.75;84.87
23016;BME280;11674;52.428;13.584;2023-12-22T19:17:42;98908.28;;;2.81;85.01
23016;BME280;11674;52.428;13.584;2023-12-22T19:22:49;98930.19;;;2.86;84.84
23016;BME280;11674;52.428;13.584;2023-12-22T19:27:56;98918.53;;;2.89;84.80
23016;BME280;11674;52.428;13.584;2023-12-22T19:33:04;98921.47;;;2.92;84.87
23016;BME280;11674;52.428;13.584;2023-12-22T19:38:11;98934.94;;;2.94;84.72
23016;BME280;11674;52.428;13.584;2023-12-22T19:43:18;98931.59;;;2.97;84.72
23016;BME280;11674;52.428;13.584;2023-12-22T19:48:25;98932.09;;;2.99;84.61
23016;BME280;11674;52.428;13.584;2023-12-22T19:53:31;98924.94;;;2.98;84.65
23016;BME280;11674;52.428;13.584;2023-12-22T19:58:38;98920.25;;;2.98;84.53
23016;BME280;11674;52.428;13.584;2023-12-22T20:03:45;98929.81;;;3.01;84.67
23016;BME280;11674;52.428;13.584;2023-12-22T20:08:53;98925.97;;;3.02;84.59
23016;BME280;11674;52.428;13.584;2023-12-22T20:14:00;98946.22;;;3.06;84.82
23016;BME280;11674;52.428;13.584;2023-12-22T20:19:07;98926.34;;;3.09;84.56
23016;BME280;11674;52.428;13.584;2023-12-22T20:24:14;98923.91;;;3.07;84.45
23016;BME280;11674;52.428;13.584;2023-12-22T20:29:21;98934.53;;;3.00;84.44
23016;BME280;11674;52.428;13.584;2023-12-22T20:34:28;98954.94;;;2.99;84.36
23016;BME280;11674;52.428;13.584;2023-12-22T20:39:35;98950.03;;;2.96;84.36
23016;BME280;11674;52.428;13.584;2023-12-22T20:44:45;98955.53;;;2.96;84.12
23016;BME280;11674;52.428;13.584;2023-12-22T20:49:52;98947.09;;;2.93;84.21
23016;BME280;11674;52.428;13.584;2023-12-22T20:54:59;98951.47;;;2.94;84.34
23016;BME280;11674;52.428;13.584;2023-12-22T21:00:09;98950.25;;;2.86;83.40
23016;BME280;11674;52.428;13.584;2023-12-22T21:05:17;98970.09;;;2.48;82.22
23016;BME280;11674;52.428;13.584;2023-12-22T21:10:24;98987.03;;;2.09;82.18
23016;BME280;11674;52.428;13.584;2023-12-22T21:15:31;99010.44;;;1.75;82.19
23016;BME280;11674;52.428;13.584;2023-12-22T21:20:38;99042.31;;;1.39;82.73
23016;BME280;11674;52.428;13.584;2023-12-22T21:25:45;99022.69;;;0.66;81.41
23016;BME280;11674;52.428;13.584;2023-12-22T21:30:52;99037.94;;;-0.03;81.32
23016;BME280;11674;52.428;13.584;2023-12-22T21:35:59;99036.47;;;-0.53;82.13
23016;BME280;11674;52.428;13.584;2023-12-22T21:41:08;99048.06;;;-0.71;82.93
23016;BME280;11674;52.428;13.584;2023-12-22T21:46:22;99049.44;;;-0.73;83.81
23016;BME280;11674;52.428;13.584;2023-12-22T21:51:29;99058.50;;;-0.78;83.56
23016;BME280;11674;52.428;13.584;2023-12-22T21:56:39;99081.03;;;-0.91;83.26
23016;BME280;11674;52.428;13.584;2023-12-22T22:01:49;99060.00;;;-1.00;83.58
23016;BME280;11674;52.428;13.584;2023-12-22T22:06:56;99060.56;;;-1.03;83.88
23016;BME280;11674;52.428;13.584;2023-12-22T22:12:03;99015.66;;;-0.97;84.18
23016;BME280;11674;52.428;13.584;2023-12-22T22:17:11;99045.75;;;-0.92;84.13
23016;BME280;11674;52.428;13.584;2023-12-22T22:22:20;99044.88;;;-0.88;84.18
23016;BME280;11674;52.428;13.584;2023-12-22T22:27:27;99049.50;;;-0.83;84.30
23016;BME280;11674;52.428;13.584;2023-12-22T22:32:34;99062.34;;;-0.79;84.38
23016;BME280;11674;52.428;13.584;2023-12-22T22:37:51;99077.13;;;-0.75;84.47
23016;BME280;11674;52.428;13.584;2023-12-22T22:42:59;99097.09;;;-0.74;84.19
23016;BME280;11674;52.428;13.584;2023-12-22T22:48:06;99101.75;;;-0.75;84.15
23016;BME280;11674;52.428;13.584;2023-12-22T22:53:22;99105.84;;;-0.72;84.32
23016;BME280;11674;52.428;13.584;2023-12-22T22:58:29;99115.13;;;-0.73;84.12
23016;BME280;11674;52.428;13.584;2023-12-22T23:03:36;99136.47;;;-0.70;84.28
23016;BME280;11674;52.428;13.584;2023-12-22T23:08:43;99139.19;;;-0.65;84.52
23016;BME280;11674;52.428;13.584;2023-12-22T23:13:54;99132.59;;;-0.59;84.65
23016;BME280;11674;52.428;13.584;2023-12-22T23:19:01;99142.69;;;-0.55;84.46
23016;BME280;11674;52.428;13.584;2023-12-22T23:24:08;99149.78;;;-0.49;84.60
23016;BME280;11674;52.428;13.584;2023-12-22T23:29:15;99164.28;;;-0.48;84.14
23016;BME280;11674;52.428;13.584;2023-12-22T23:34:22;99166.22;;;-0.54;84.00
23016;BME280;11674;52.428;13.584;2023-12-22T23:39:29;99177.47;;;-0.50;84.51
23016;BME280;11674;52.428;13.584;2023-12-22T23:44:38;99176.88;;;-0.47;84.86
23016;BME280;11674;52.428;13.584;2023-12-22T23:49:45;99194.41;;;-0.43;84.99
23016;BME280;11674;52.428;13.584;2023-12-22T23:54:52;99203.41;;;-0.38;85.08
23016;BME280;11674;52.428;13.584;2023-12-22T23:59:59;99208.59;;;-0.36;85.16
